Terminal Aerodrome Forecast
Issued by NWS

Home | Current Version | Previous Version | Text Only | Print | Product List | Glossary On
Versions: 1 2 3 4 5 6 7 8 9 10 11
000
FTUS45 KVEF 281700
TAFDAG
TAF
KDAG 281739Z 2818/0118 24019KT P6SM FEW040 SCT150
     FM281900 25026G36KT P6SM FEW040 BKN150
     FM010400 24018G28KT P6SM FEW040 BKN150
     FM010800 25009KT P6SM FEW040 BKN100=

USA.gov is the U.S. government's official web portal to all federal, state and local government web resources and services.